Sunday, May 29, 2016
21:10 UTC
  |  Log In   |  Register Free
Airport Search:

New River Valley Airport
(KPSK)

New River Valley Airport Diagram
No Airport Diagram Available

FAA data valid effective Mar 31 2016 - May 26 2016 (unless otherwise noted).

 
 
 
 
 
 
 
 
 
 
 
 
 
 
Current Aviation Weather for KPSK

Weather Summary


The most recent METAR observation for PSK was updated at: 12:55 UTC
METAR for KPSK is not available. Closest METAR is for KBCB
KPSK  (most recent observation was updatred at 29:20 UTC)
292055Z AUTO 04005KT 10SM -RA SCT060 BKN080 OVC090 20/17 A3017 RMK AO2 P0001 60001 T01980166

KBCB  (13.6 nm SW)   (most recent observation was updated at 29:20 UTC)
292055Z AUTO 00000KT 10SM OVC037 21/15 A3018 RMK AO2 60002 T02050150 TSNO

KHLX  (23.4 nm NE)   (most recent observation was updated at 29:20 UTC)
292055Z AUTO 03003KT 10SM OVC070 20/14 A3016 RMK AO2 T02020137

TAF for KPSK is not available.
KBCB  (13.6 nm SW)   (most recent observation was updatred at 29:17 UTC)
291733Z 2918/3018 VRB03KT P6SM VCSH SCT040 BKN080 FM300000 00000KT P6SM VCSH SCT020 BKN040 FM300900 00000KT 3SM BR SCT009 BKN020 FM301400 01004KT P6SM OVC025


KBLF  (27.0 nm SE)   (most recent observation was updatred at 29:17 UTC)
291733Z 2918/3018 VRB03KT P6SM VCSH OVC070 FM300300 VRB03KT P6SM SCT030 BKN060 FM301400 VRB03KT P6SM BKN050


GlobalAir.com is loading additional information.
 Current Weather at PSK
73.0 F° (22.5 C°)

East winds at 5.8 mph
Pressure:
30.18 in
Humidity:
66%
Wind:
East at 5.8 mph
Dew Point:
60.4 F° (15.8 C°)
Visibility:
10.00 mi
PSK NOAA Radar




Find All Airport Services Find A Hotel Find A Rental Car Find A Golf Course Find A Restaurant $100 Hamburger



Airport Weather Forecast for KPSK

Translated METAR for KPSK (2055 UTC)
METAR:
KPSK 292055Z AUTO 04005KT 10SM -RA SCT060 BKN080 OVC090 20/17 A3017 RMK AO2 P0001 60001 T01980166
Conditions at:
KPSK (New River Valley, VA) observed 2055 UTC 29 May 2016
Temperature:
20°C (68°F)
Dewpoint:
17°C (62.6°F) [RH = 82.9]
Pressure:
30.17 inches Hg (1021.7 mb)
Winds:
from the NE (040 degrees) at 5.8 mph (5 knots: 2.6 m/s)
Visibility:
10 mile(s)
Ceiling:
8,000 feet AGL
Clouds:
Scattered Clouds at 6,000 feet AGL
Broken Cloud Cover at 8,000 feet AGL
Overcast Skies at 9,000 feet AGL
Remarks:
site is un-manned
site is automated and HAS a precipitation sensor

Translated TAF for KBCB (Virginia Tech/Montgomery Executive, VA) (1733 UTC)
TAF text:
KBCB 291733Z 2918/3018 VRB03KT P6SM VCSH SCT040 BKN080
Forecast period:
Sunday May 29 2016 18:00 UTC - Monday May 30 2016 18:00 UTC
Forecast type:
FROM: standard forecast or significant change
Winds:
variable wind direction at 3.5 mph (3 knots: 1.5 m/s)
Visibility:
6 or more mile(s) (9.7+ km)
Ceiling:
8,000 feet AGL
Clouds:
Scattered Clouds at 4,000 feet AGL
Broken Cloud Cover at 8,000 feet AGL
Weather:
Moderate In Vicinity Shower(s)
TAF text:
FM300000 00000KT P6SM VCSH SCT020 BKN040
Forecast period:
Monday May 30 2016 00:00 UTC - Monday May 30 2016 09:00 UTC
Forecast type:
FROM: standard forecast or significant change
Winds:
from the N (000 degrees) at 0 mph (0 knots: 0 m/s)
Visibility:
6 or more mile(s) (9.7+ km)
Ceiling:
4,000 feet AGL
Clouds:
Scattered Clouds at 2,000 feet AGL
Broken Cloud Cover at 4,000 feet AGL
Weather:
Moderate In Vicinity Shower(s)
TAF text:
FM300900 00000KT 3SM BR SCT009 BKN020
Forecast period:
Monday May 30 2016 09:00 UTC - Monday May 30 2016 14:00 UTC
Forecast type:
FROM: standard forecast or significant change
Winds:
from the N (000 degrees) at 0 mph (0 knots: 0 m/s)
Visibility:
3 mile(s) (4.8 km)
Ceiling:
2,000 feet AGL
Clouds:
Scattered Clouds at 900 feet AGL
Broken Cloud Cover at 2,000 feet AGL
Weather:
Moderate Mist
TAF text:
FM301400 01004KT P6SM OVC025
Forecast period:
Monday May 30 2016 14:00 UTC - Monday May 30 2016 18:00 UTC
Forecast type:
FROM: standard forecast or significant change
Winds:
from the N (010 degrees) at 4.6 mph (4 knots: 2.1 m/s)
Visibility:
6 or more mile(s) (9.7+ km)
Ceiling:
2,500 feet AGL
Clouds:
Overcast Skies at 2,500 feet AGL
Weather:
no significant weather observed at this time
FBO's on the Field
FBO Company Facility Photos Services Transportation Aviation Fuel Prices: Prices include tax
Catering Weather Repair Courtesy Rental Type 100LL JetA JetA+ MOGAS 8087
 
New River Valley Airport

This FBO has not yet been rated
FS:Avfuel
Last Updated: May-10
Login to update fuel prices
SS:
Contact New River Valley AirportMore FBO Information
 
Add another FBO Facility Photos Catering Weather Repair Courtesy Rental Type 100LL JetA JetA+ MOGAS 8087
Services Transportation Aviation Fuel Prices: Prices include tax


model-print
model-print
model-print
model-print